sensor_id;sensor_type;location;lat;lon;timestamp;pressure;altitude;pressure_sealevel;temperature;humidity
22572;BME280;11452;53.368;14.658;2023-07-09T00:01:21;101613.09;;;18.18;54.82
22572;BME280;11452;53.368;14.658;2023-07-09T00:06:27;101614.89;;;18.12;55.35
22572;BME280;11452;53.368;14.658;2023-07-09T00:11:32;101622.86;;;18.08;55.67
22572;BME280;11452;53.368;14.658;2023-07-09T00:16:39;101623.66;;;17.97;55.78
22572;BME280;11452;53.368;14.658;2023-07-09T00:21:48;101615.38;;;17.93;56.33
22572;BME280;11452;53.368;14.658;2023-07-09T00:26:55;101624.61;;;17.78;56.59
22572;BME280;11452;53.368;14.658;2023-07-09T00:32:01;101633.05;;;17.74;56.87
22572;BME280;11452;53.368;14.658;2023-07-09T00:37:11;101633.48;;;17.68;57.26
22572;BME280;11452;53.368;14.658;2023-07-09T00:42:20;101625.58;;;17.64;57.55
22572;BME280;11452;53.368;14.658;2023-07-09T00:52:52;101617.16;;;17.44;58.06
22572;BME280;11452;53.368;14.658;2023-07-09T00:58:01;101620.94;;;17.41;58.14
22572;BME280;11452;53.368;14.658;2023-07-09T01:03:09;101627.19;;;17.29;58.76
22572;BME280;11452;53.368;14.658;2023-07-09T01:08:15;101630.45;;;17.21;58.83
22572;BME280;11452;53.368;14.658;2023-07-09T01:13:21;101629.02;;;17.16;59.39
22572;BME280;11452;53.368;14.658;2023-07-09T01:18:27;101625.28;;;17.11;59.58
22572;BME280;11452;53.368;14.658;2023-07-09T01:23:33;101618.53;;;17.11;59.80
22572;BME280;11452;53.368;14.658;2023-07-09T01:28:40;101633.34;;;17.06;60.07
22572;BME280;11452;53.368;14.658;2023-07-09T01:33:49;101624.30;;;17.00;60.17
22572;BME280;11452;53.368;14.658;2023-07-09T01:38:56;101627.70;;;16.96;60.48
22572;BME280;11452;53.368;14.658;2023-07-09T01:44:02;101621.70;;;16.85;60.77
22572;BME280;11452;53.368;14.658;2023-07-09T01:49:09;101616.70;;;16.79;61.01
22572;BME280;11452;53.368;14.658;2023-07-09T01:54:15;101621.64;;;16.73;61.14
22572;BME280;11452;53.368;14.658;2023-07-09T01:59:21;101619.37;;;16.59;61.33
22572;BME280;11452;53.368;14.658;2023-07-09T02:04:27;101626.41;;;16.55;61.86
22572;BME280;11452;53.368;14.658;2023-07-09T02:09:33;101620.10;;;16.49;62.01
22572;BME280;11452;53.368;14.658;2023-07-09T02:14:40;101617.12;;;16.46;62.35
22572;BME280;11452;53.368;14.658;2023-07-09T02:19:46;101629.56;;;16.42;62.41
22572;BME280;11452;53.368;14.658;2023-07-09T02:24:52;101636.98;;;16.38;62.77
22572;BME280;11452;53.368;14.658;2023-07-09T02:29:59;101630.14;;;16.40;63.08
22572;BME280;11452;53.368;14.658;2023-07-09T02:35:05;101636.16;;;16.31;63.22
22572;BME280;11452;53.368;14.658;2023-07-09T02:40:13;101633.28;;;16.26;63.49
22572;BME280;11452;53.368;14.658;2023-07-09T02:45:19;101633.37;;;16.25;63.61
22572;BME280;11452;53.368;14.658;2023-07-09T02:50:25;101629.91;;;16.16;63.94
22572;BME280;11452;53.368;14.658;2023-07-09T02:55:31;101636.41;;;16.13;64.17
22572;BME280;11452;53.368;14.658;2023-07-09T03:00:39;101634.19;;;16.13;64.51
22572;BME280;11452;53.368;14.658;2023-07-09T03:05:48;101644.84;;;16.14;64.55
22572;BME280;11452;53.368;14.658;2023-07-09T03:10:54;101650.14;;;16.16;64.94
22572;BME280;11452;53.368;14.658;2023-07-09T03:15:59;101648.31;;;16.16;65.09
22572;BME280;11452;53.368;14.658;2023-07-09T03:21:06;101650.56;;;16.10;64.73
22572;BME280;11452;53.368;14.658;2023-07-09T03:26:12;101646.33;;;15.99;65.40
22572;BME280;11452;53.368;14.658;2023-07-09T03:31:18;101648.83;;;16.02;65.44
22572;BME280;11452;53.368;14.658;2023-07-09T03:36:24;101658.08;;;15.98;65.95
22572;BME280;11452;53.368;14.658;2023-07-09T03:41:30;101659.52;;;16.10;66.25
22572;BME280;11452;53.368;14.658;2023-07-09T03:46:36;101655.25;;;16.20;66.58
22572;BME280;11452;53.368;14.658;2023-07-09T03:51:41;101651.48;;;16.30;66.62
22572;BME280;11452;53.368;14.658;2023-07-09T03:56:47;101656.17;;;16.34;66.71
22572;BME280;11452;53.368;14.658;2023-07-09T04:01:52;101652.41;;;16.43;67.03
22572;BME280;11452;53.368;14.658;2023-07-09T04:06:58;101655.23;;;16.61;67.31
22572;BME280;11452;53.368;14.658;2023-07-09T04:12:05;101652.11;;;16.75;67.32
22572;BME280;11452;53.368;14.658;2023-07-09T04:17:11;101652.48;;;16.76;67.23
22572;BME280;11452;53.368;14.658;2023-07-09T04:22:17;101677.09;;;17.11;68.05
22572;BME280;11452;53.368;14.658;2023-07-09T04:27:22;101673.41;;;17.31;67.49
22572;BME280;11452;53.368;14.658;2023-07-09T04:32:30;101675.98;;;17.65;67.87
22572;BME280;11452;53.368;14.658;2023-07-09T04:37:36;101672.38;;;18.03;67.68
22572;BME280;11452;53.368;14.658;2023-07-09T04:42:41;101666.38;;;18.23;66.93
22572;BME280;11452;53.368;14.658;2023-07-09T04:47:47;101667.13;;;18.44;66.70
22572;BME280;11452;53.368;14.658;2023-07-09T04:52:53;101667.02;;;18.63;65.91
22572;BME280;11452;53.368;14.658;2023-07-09T04:57:59;101681.47;;;18.70;65.15
22572;BME280;11452;53.368;14.658;2023-07-09T05:03:05;101674.09;;;18.77;64.97
22572;BME280;11452;53.368;14.658;2023-07-09T05:08:11;101671.05;;;19.17;64.62
22572;BME280;11452;53.368;14.658;2023-07-09T05:13:17;101672.02;;;19.51;64.42
22572;BME280;11452;53.368;14.658;2023-07-09T05:18:23;101672.78;;;19.69;63.38
22572;BME280;11452;53.368;14.658;2023-07-09T05:23:29;101673.81;;;19.85;62.80
22572;BME280;11452;53.368;14.658;2023-07-09T05:28:35;101667.48;;;19.74;61.64
22572;BME280;11452;53.368;14.658;2023-07-09T05:33:40;101680.92;;;19.69;61.75
22572;BME280;11452;53.368;14.658;2023-07-09T05:38:46;101679.08;;;19.87;61.26
22572;BME280;11452;53.368;14.658;2023-07-09T05:43:52;101677.48;;;19.90;60.93
22572;BME280;11452;53.368;14.658;2023-07-09T05:48:58;101680.56;;;20.13;61.34
22572;BME280;11452;53.368;14.658;2023-07-09T05:54:04;101679.92;;;20.26;60.15
22572;BME280;11452;53.368;14.658;2023-07-09T05:59:09;101671.41;;;20.31;60.13
22572;BME280;11452;53.368;14.658;2023-07-09T06:04:15;101675.34;;;20.55;60.74
22572;BME280;11452;53.368;14.658;2023-07-09T06:09:23;101675.66;;;20.72;59.94
22572;BME280;11452;53.368;14.658;2023-07-09T06:14:28;101667.02;;;20.99;60.26
22572;BME280;11452;53.368;14.658;2023-07-09T06:19:34;101670.63;;;21.26;59.65
22572;BME280;11452;53.368;14.658;2023-07-09T06:24:40;101672.77;;;21.38;59.06
22572;BME280;11452;53.368;14.658;2023-07-09T06:29:46;101675.38;;;21.34;58.27
22572;BME280;11452;53.368;14.658;2023-07-09T06:34:51;101676.43;;;21.48;58.84
22572;BME280;11452;53.368;14.658;2023-07-09T06:39:57;101671.36;;;21.64;58.35
22572;BME280;11452;53.368;14.658;2023-07-09T06:45:03;101666.45;;;21.73;57.83
22572;BME280;11452;53.368;14.658;2023-07-09T06:50:09;101674.22;;;21.78;56.86
22572;BME280;11452;53.368;14.658;2023-07-09T06:55:15;101678.55;;;22.11;56.81
22572;BME280;11452;53.368;14.658;2023-07-09T07:00:21;101676.02;;;22.29;56.25
22572;BME280;11452;53.368;14.658;2023-07-09T07:05:27;101675.65;;;22.43;55.18
22572;BME280;11452;53.368;14.658;2023-07-09T07:10:32;101682.10;;;22.42;54.85
22572;BME280;11452;53.368;14.658;2023-07-09T07:15:38;101684.92;;;22.65;54.75
22572;BME280;11452;53.368;14.658;2023-07-09T07:20:44;101688.59;;;22.60;53.65
22572;BME280;11452;53.368;14.658;2023-07-09T07:25:50;101691.65;;;22.86;53.57
22572;BME280;11452;53.368;14.658;2023-07-09T07:31:09;101688.85;;;23.01;53.16
22572;BME280;11452;53.368;14.658;2023-07-09T07:36:11;101699.69;;;23.26;52.61
22572;BME280;11452;53.368;14.658;2023-07-09T07:41:19;101695.31;;;23.29;51.95
22572;BME280;11452;53.368;14.658;2023-07-09T07:46:24;101695.86;;;23.42;51.82
22572;BME280;11452;53.368;14.658;2023-07-09T07:51:30;101693.52;;;23.53;51.89
22572;BME280;11452;53.368;14.658;2023-07-09T07:56:37;101699.66;;;23.74;51.29
22572;BME280;11452;53.368;14.658;2023-07-09T08:01:44;101697.81;;;23.79;50.89
22572;BME280;11452;53.368;14.658;2023-07-09T08:06:50;101696.94;;;23.88;50.53
22572;BME280;11452;53.368;14.658;2023-07-09T08:11:57;101695.67;;;23.96;50.34
22572;BME280;11452;53.368;14.658;2023-07-09T08:17:03;101695.14;;;24.20;49.90
22572;BME280;11452;53.368;14.658;2023-07-09T08:22:09;101692.64;;;24.36;49.44
22572;BME280;11452;53.368;14.658;2023-07-09T08:27:15;101687.80;;;24.44;49.34
22572;BME280;11452;53.368;14.658;2023-07-09T08:32:21;101685.14;;;24.66;48.98
22572;BME280;11452;53.368;14.658;2023-07-09T08:37:26;101681.84;;;24.62;48.78
22572;BME280;11452;53.368;14.658;2023-07-09T08:42:36;101685.50;;;24.84;48.80
22572;BME280;11452;53.368;14.658;2023-07-09T08:48:03;101682.25;;;24.99;48.22
22572;BME280;11452;53.368;14.658;2023-07-09T08:53:25;101686.34;;;25.16;47.96
22572;BME280;11452;53.368;14.658;2023-07-09T08:58:27;101679.54;;;25.21;47.25
22572;BME280;11452;53.368;14.658;2023-07-09T09:03:42;101680.91;;;25.25;46.89
22572;BME280;11452;53.368;14.658;2023-07-09T09:09:28;101678.14;;;25.38;46.05
22572;BME280;11452;53.368;14.658;2023-07-09T09:14:36;101687.30;;;25.51;45.36
22572;BME280;11452;53.368;14.658;2023-07-09T09:19:56;101669.37;;;25.61;44.51
22572;BME280;11452;53.368;14.658;2023-07-09T09:25:23;101676.51;;;25.71;44.40
22572;BME280;11452;53.368;14.658;2023-07-09T09:30:28;101668.52;;;25.78;44.42
22572;BME280;11452;53.368;14.658;2023-07-09T09:35:37;101666.53;;;25.92;44.79
22572;BME280;11452;53.368;14.658;2023-07-09T09:40:43;101669.43;;;25.91;44.50
22572;BME280;11452;53.368;14.658;2023-07-09T09:45:50;101671.58;;;26.09;44.08
22572;BME280;11452;53.368;14.658;2023-07-09T09:50:57;101666.25;;;26.07;44.25
22572;BME280;11452;53.368;14.658;2023-07-09T09:56:11;101665.11;;;26.22;43.90
22572;BME280;11452;53.368;14.658;2023-07-09T10:01:17;101663.73;;;26.22;43.09
22572;BME280;11452;53.368;14.658;2023-07-09T10:06:38;101665.31;;;26.29;42.54
22572;BME280;11452;53.368;14.658;2023-07-09T10:11:46;101661.09;;;26.34;42.07
22572;BME280;11452;53.368;14.658;2023-07-09T10:16:58;101659.59;;;26.48;41.92
22572;BME280;11452;53.368;14.658;2023-07-09T10:22:04;101664.77;;;26.67;41.63
22572;BME280;11452;53.368;14.658;2023-07-09T10:27:13;101665.30;;;26.83;41.11
22572;BME280;11452;53.368;14.658;2023-07-09T10:32:33;101666.00;;;26.85;40.32
22572;BME280;11452;53.368;14.658;2023-07-09T10:37:48;101673.23;;;26.98;40.13
22572;BME280;11452;53.368;14.658;2023-07-09T10:42:54;101672.16;;;26.91;39.33
22572;BME280;11452;53.368;14.658;2023-07-09T10:48:10;101671.89;;;27.06;39.01
22572;BME280;11452;53.368;14.658;2023-07-09T10:53:35;101673.24;;;27.14;38.86
22572;BME280;11452;53.368;14.658;2023-07-09T10:58:42;101670.17;;;27.26;37.58
22572;BME280;11452;53.368;14.658;2023-07-09T11:03:50;101657.08;;;27.48;37.30
22572;BME280;11452;53.368;14.658;2023-07-09T11:08:58;101664.12;;;27.50;36.76
22572;BME280;11452;53.368;14.658;2023-07-09T11:14:10;101655.05;;;27.42;35.89
22572;BME280;11452;53.368;14.658;2023-07-09T11:19:17;101660.16;;;27.69;34.69
22572;BME280;11452;53.368;14.658;2023-07-09T11:24:45;101659.48;;;27.55;33.66
22572;BME280;11452;53.368;14.658;2023-07-09T11:30:16;101653.98;;;27.67;32.93
22572;BME280;11452;53.368;14.658;2023-07-09T11:35:20;101655.01;;;27.70;32.91
22572;BME280;11452;53.368;14.658;2023-07-09T11:40:17;101641.27;;;27.66;31.96
22572;BME280;11452;53.368;14.658;2023-07-09T11:45:35;101638.52;;;27.74;32.75
22572;BME280;11452;53.368;14.658;2023-07-09T11:50:41;101631.64;;;27.78;32.33
22572;BME280;11452;53.368;14.658;2023-07-09T11:55:46;101633.64;;;27.92;32.30
22572;BME280;11452;53.368;14.658;2023-07-09T12:00:57;101627.91;;;28.06;32.21
22572;BME280;11452;53.368;14.658;2023-07-09T12:06:05;101618.93;;;28.20;32.48
22572;BME280;11452;53.368;14.658;2023-07-09T12:11:34;101608.07;;;28.27;32.39
22572;BME280;11452;53.368;14.658;2023-07-09T12:16:42;101597.39;;;28.32;32.99
22572;BME280;11452;53.368;14.658;2023-07-09T12:21:56;101603.80;;;28.51;32.83
22572;BME280;11452;53.368;14.658;2023-07-09T12:27:02;101598.02;;;28.65;33.33
22572;BME280;11452;53.368;14.658;2023-07-09T12:32:14;101598.74;;;28.59;33.23
22572;BME280;11452;53.368;14.658;2023-07-09T12:37:21;101598.02;;;28.65;33.27
22572;BME280;11452;53.368;14.658;2023-07-09T12:42:32;101588.13;;;28.56;32.96
22572;BME280;11452;53.368;14.658;2023-07-09T12:47:39;101583.66;;;28.55;32.89
22572;BME280;11452;53.368;14.658;2023-07-09T12:52:49;101575.69;;;28.87;33.01
22572;BME280;11452;53.368;14.658;2023-07-09T12:57:59;101571.16;;;28.94;32.21
22572;BME280;11452;53.368;14.658;2023-07-09T13:03:11;101571.19;;;29.09;32.26
22572;BME280;11452;53.368;14.658;2023-07-09T13:08:14;101566.34;;;29.29;32.20
22572;BME280;11452;53.368;14.658;2023-07-09T13:13:22;101554.86;;;29.55;31.92
22572;BME280;11452;53.368;14.658;2023-07-09T13:18:28;101555.30;;;29.63;31.78
22572;BME280;11452;53.368;14.658;2023-07-09T13:23:36;101552.61;;;29.70;31.38
22572;BME280;11452;53.368;14.658;2023-07-09T13:28:43;101550.52;;;29.72;31.02
22572;BME280;11452;53.368;14.658;2023-07-09T13:33:57;101555.11;;;29.65;30.82
22572;BME280;11452;53.368;14.658;2023-07-09T13:39:03;101552.31;;;29.69;30.84
22572;BME280;11452;53.368;14.658;2023-07-09T13:44:20;101544.62;;;29.49;30.48
22572;BME280;11452;53.368;14.658;2023-07-09T13:49:23;101539.97;;;29.50;30.92
22572;BME280;11452;53.368;14.658;2023-07-09T13:54:33;101529.66;;;29.73;30.76
22572;BME280;11452;53.368;14.658;2023-07-09T13:59:42;101522.62;;;29.85;30.55
22572;BME280;11452;53.368;14.658;2023-07-09T14:04:48;101521.86;;;29.77;30.41
22572;BME280;11452;53.368;14.658;2023-07-09T14:09:55;101525.78;;;30.18;29.75
22572;BME280;11452;53.368;14.658;2023-07-09T14:15:01;101517.72;;;30.38;29.89
22572;BME280;11452;53.368;14.658;2023-07-09T14:20:15;101519.34;;;30.33;28.89
22572;BME280;11452;53.368;14.658;2023-07-09T14:25:23;101515.20;;;30.43;29.18
22572;BME280;11452;53.368;14.658;2023-07-09T14:30:29;101511.91;;;30.44;28.58
22572;BME280;11452;53.368;14.658;2023-07-09T14:35:35;101507.86;;;30.40;28.58
22572;BME280;11452;53.368;14.658;2023-07-09T14:40:41;101509.56;;;30.62;29.25
22572;BME280;11452;53.368;14.658;2023-07-09T14:45:48;101507.14;;;30.74;28.70
22572;BME280;11452;53.368;14.658;2023-07-09T14:50:56;101509.92;;;30.91;28.20
22572;BME280;11452;53.368;14.658;2023-07-09T14:56:02;101503.03;;;30.80;27.99
22572;BME280;11452;53.368;14.658;2023-07-09T15:01:23;101501.58;;;30.56;27.96
22572;BME280;11452;53.368;14.658;2023-07-09T15:06:17;101494.48;;;30.58;28.43
22572;BME280;11452;53.368;14.658;2023-07-09T15:11:23;101497.26;;;31.03;28.40
22572;BME280;11452;53.368;14.658;2023-07-09T15:16:29;101500.63;;;30.71;27.79
22572;BME280;11452;53.368;14.658;2023-07-09T15:21:34;101493.63;;;30.57;27.38
22572;BME280;11452;53.368;14.658;2023-07-09T15:26:41;101496.03;;;30.67;27.68
22572;BME280;11452;53.368;14.658;2023-07-09T15:31:47;101494.55;;;30.82;27.78
22572;BME280;11452;53.368;14.658;2023-07-09T15:36:53;101484.63;;;31.05;27.75
22572;BME280;11452;53.368;14.658;2023-07-09T15:41:59;101494.41;;;30.90;27.25
22572;BME280;11452;53.368;14.658;2023-07-09T15:47:05;101484.00;;;31.37;28.14
22572;BME280;11452;53.368;14.658;2023-07-09T15:52:12;101477.67;;;32.48;27.27
22572;BME280;11452;53.368;14.658;2023-07-09T15:57:18;101480.28;;;32.76;25.39
22572;BME280;11452;53.368;14.658;2023-07-09T16:02:26;101470.45;;;32.27;25.77
22572;BME280;11452;53.368;14.658;2023-07-09T16:07:32;101465.09;;;31.82;26.51
22572;BME280;11452;53.368;14.658;2023-07-09T16:12:38;101457.31;;;31.81;27.08
22572;BME280;11452;53.368;14.658;2023-07-09T16:17:47;101454.20;;;31.67;27.23
22572;BME280;11452;53.368;14.658;2023-07-09T16:22:58;101443.34;;;31.48;26.91
22572;BME280;11452;53.368;14.658;2023-07-09T16:28:05;101444.48;;;31.43;27.31
22572;BME280;11452;53.368;14.658;2023-07-09T16:33:10;101442.12;;;31.33;27.58
22572;BME280;11452;53.368;14.658;2023-07-09T16:38:16;101441.52;;;31.45;27.85
22572;BME280;11452;53.368;14.658;2023-07-09T16:43:22;101442.73;;;31.53;28.78
22572;BME280;11452;53.368;14.658;2023-07-09T16:48:28;101444.19;;;31.66;28.77
22572;BME280;11452;53.368;14.658;2023-07-09T16:53:34;101428.47;;;31.49;29.26
22572;BME280;11452;53.368;14.658;2023-07-09T16:58:40;101427.82;;;31.47;30.39
22572;BME280;11452;53.368;14.658;2023-07-09T17:03:46;101424.48;;;31.89;30.45
22572;BME280;11452;53.368;14.658;2023-07-09T17:08:52;101424.83;;;32.16;30.87
22572;BME280;11452;53.368;14.658;2023-07-09T17:13:57;101421.78;;;32.55;31.02
22572;BME280;11452;53.368;14.658;2023-07-09T17:19:07;101410.30;;;33.07;30.19
22572;BME280;11452;53.368;14.658;2023-07-09T17:24:26;101417.39;;;32.69;30.52
22572;BME280;11452;53.368;14.658;2023-07-09T17:29:32;101410.83;;;32.24;31.30
22572;BME280;11452;53.368;14.658;2023-07-09T17:34:38;101409.01;;;31.71;32.13
22572;BME280;11452;53.368;14.658;2023-07-09T17:39:44;101400.27;;;31.74;32.67
22572;BME280;11452;53.368;14.658;2023-07-09T17:44:50;101403.48;;;31.71;33.22
22572;BME280;11452;53.368;14.658;2023-07-09T17:49:56;101402.53;;;31.57;33.12
22572;BME280;11452;53.368;14.658;2023-07-09T17:55:02;101391.89;;;31.23;33.23
22572;BME280;11452;53.368;14.658;2023-07-09T18:00:15;101383.03;;;30.83;33.63
22572;BME280;11452;53.368;14.658;2023-07-09T18:05:25;101386.77;;;30.69;33.99
22572;BME280;11452;53.368;14.658;2023-07-09T18:10:33;101388.23;;;30.64;34.76
22572;BME280;11452;53.368;14.658;2023-07-09T18:15:40;101384.77;;;30.45;35.49
22572;BME280;11452;53.368;14.658;2023-07-09T18:20:47;101394.13;;;30.72;36.11
22572;BME280;11452;53.368;14.658;2023-07-09T18:25:53;101395.84;;;30.90;37.05
22572;BME280;11452;53.368;14.658;2023-07-09T18:30:59;101388.23;;;30.82;36.89
22572;BME280;11452;53.368;14.658;2023-07-09T18:36:07;101399.24;;;30.58;36.92
22572;BME280;11452;53.368;14.658;2023-07-09T18:41:14;101402.53;;;30.57;36.96
22572;BME280;11452;53.368;14.658;2023-07-09T18:46:21;101412.52;;;29.94;37.04
22572;BME280;11452;53.368;14.658;2023-07-09T18:51:27;101425.50;;;29.69;38.07
22572;BME280;11452;53.368;14.658;2023-07-09T18:56:33;101419.38;;;29.22;38.34
22572;BME280;11452;53.368;14.658;2023-07-09T19:01:38;101422.34;;;28.73;39.34
22572;BME280;11452;53.368;14.658;2023-07-09T19:06:45;101433.09;;;28.45;40.18
22572;BME280;11452;53.368;14.658;2023-07-09T19:11:53;101441.59;;;28.12;40.86
22572;BME280;11452;53.368;14.658;2023-07-09T19:17:03;101457.22;;;27.89;41.64
22572;BME280;11452;53.368;14.658;2023-07-09T19:22:12;101463.41;;;27.60;42.33
22572;BME280;11452;53.368;14.658;2023-07-09T19:27:18;101463.49;;;27.32;42.82
22572;BME280;11452;53.368;14.658;2023-07-09T19:32:26;101473.90;;;27.01;43.51
22572;BME280;11452;53.368;14.658;2023-07-09T19:37:35;101478.19;;;26.75;44.15
22572;BME280;11452;53.368;14.658;2023-07-09T19:42:42;101483.03;;;26.45;44.72
22572;BME280;11452;53.368;14.658;2023-07-09T19:47:49;101484.69;;;26.09;45.48
22572;BME280;11452;53.368;14.658;2023-07-09T19:52:58;101482.73;;;25.85;46.33
22572;BME280;11452;53.368;14.658;2023-07-09T19:58:04;101485.23;;;25.63;46.94
22572;BME280;11452;53.368;14.658;2023-07-09T20:03:25;101485.30;;;25.45;47.77
22572;BME280;11452;53.368;14.658;2023-07-09T20:08:31;101485.08;;;25.30;48.24
22572;BME280;11452;53.368;14.658;2023-07-09T20:13:37;101485.83;;;25.10;48.90
22572;BME280;11452;53.368;14.658;2023-07-09T20:18:43;101475.14;;;24.95;49.44
22572;BME280;11452;53.368;14.658;2023-07-09T20:23:50;101476.69;;;24.76;49.96
22572;BME280;11452;53.368;14.658;2023-07-09T20:28:56;101477.27;;;24.62;50.19
22572;BME280;11452;53.368;14.658;2023-07-09T20:34:16;101472.81;;;24.39;50.86
22572;BME280;11452;53.368;14.658;2023-07-09T20:39:19;101471.34;;;24.27;51.18
22572;BME280;11452;53.368;14.658;2023-07-09T20:44:26;101465.53;;;24.26;51.62
22572;BME280;11452;53.368;14.658;2023-07-09T20:49:34;101465.72;;;24.14;51.79
22572;BME280;11452;53.368;14.658;2023-07-09T20:54:41;101469.20;;;24.03;52.33
22572;BME280;11452;53.368;14.658;2023-07-09T20:59:47;101470.98;;;23.94;52.79
22572;BME280;11452;53.368;14.658;2023-07-09T21:04:53;101459.88;;;23.92;53.80
22572;BME280;11452;53.368;14.658;2023-07-09T21:09:59;101459.88;;;23.92;53.80
22572;BME280;11452;53.368;14.658;2023-07-09T21:15:06;101470.80;;;23.78;54.05
22572;BME280;11452;53.368;14.658;2023-07-09T21:20:17;101474.48;;;23.69;54.39
22572;BME280;11452;53.368;14.658;2023-07-09T21:25:26;101480.48;;;23.59;54.57
22572;BME280;11452;53.368;14.658;2023-07-09T21:30:32;101481.92;;;23.39;54.66
22572;BME280;11452;53.368;14.658;2023-07-09T21:35:39;101486.42;;;23.31;54.58
22572;BME280;11452;53.368;14.658;2023-07-09T21:40:46;101500.09;;;23.21;54.50
22572;BME280;11452;53.368;14.658;2023-07-09T21:45:53;101493.11;;;23.09;54.59
22572;BME280;11452;53.368;14.658;2023-07-09T21:50:59;101479.83;;;23.10;54.71
22572;BME280;11452;53.368;14.658;2023-07-09T21:56:06;101475.46;;;23.03;54.72
22572;BME280;11452;53.368;14.658;2023-07-09T22:01:18;101473.64;;;22.94;54.87
22572;BME280;11452;53.368;14.658;2023-07-09T22:06:24;101466.62;;;22.92;54.96
22572;BME280;11452;53.368;14.658;2023-07-09T22:11:30;101472.94;;;22.83;55.04
22572;BME280;11452;53.368;14.658;2023-07-09T22:16:35;101468.28;;;22.69;55.59
22572;BME280;11452;53.368;14.658;2023-07-09T22:21:42;101460.36;;;22.62;56.12
22572;BME280;11452;53.368;14.658;2023-07-09T22:26:48;101460.79;;;22.48;56.24
22572;BME280;11452;53.368;14.658;2023-07-09T22:31:54;101439.80;;;22.35;56.92
22572;BME280;11452;53.368;14.658;2023-07-09T22:37:00;101415.00;;;22.28;57.42
22572;BME280;11452;53.368;14.658;2023-07-09T22:42:07;101408.50;;;22.16;57.65
22572;BME280;11452;53.368;14.658;2023-07-09T22:47:20;101420.42;;;22.05;57.99
22572;BME280;11452;53.368;14.658;2023-07-09T22:52:26;101419.87;;;21.96;58.46
22572;BME280;11452;53.368;14.658;2023-07-09T22:57:31;101405.98;;;21.89;58.67
22572;BME280;11452;53.368;14.658;2023-07-09T23:02:37;101418.22;;;21.80;58.96
22572;BME280;11452;53.368;14.658;2023-07-09T23:07:43;101414.42;;;21.67;59.27
22572;BME280;11452;53.368;14.658;2023-07-09T23:12:49;101403.73;;;21.60;59.55
22572;BME280;11452;53.368;14.658;2023-07-09T23:17:57;101400.42;;;21.56;59.72
22572;BME280;11452;53.368;14.658;2023-07-09T23:23:03;101404.00;;;21.47;59.49
22572;BME280;11452;53.368;14.658;2023-07-09T23:28:11;101397.25;;;21.32;59.91
22572;BME280;11452;53.368;14.658;2023-07-09T23:33:34;101399.16;;;21.26;60.37
22572;BME280;11452;53.368;14.658;2023-07-09T23:38:35;101403.37;;;21.24;60.67
22572;BME280;11452;53.368;14.658;2023-07-09T23:43:41;101404.50;;;21.22;60.70
22572;BME280;11452;53.368;14.658;2023-07-09T23:48:47;101399.70;;;21.20;60.53
22572;BME280;11452;53.368;14.658;2023-07-09T23:53:55;101385.83;;;21.23;60.45
22572;BME280;11452;53.368;14.658;2023-07-09T23:59:02;101387.83;;;21.21;60.07
